Time;durP1;ratioP1;P1;durP2;ratioP2;P2;SDS_P1;SDS_P2;PMS_P1;PMS_P2;Temp;Humidity;BMP_temperature;BMP_pressure;BME280_temperature;BME280_humidity;BME280_pressure;Samples;Min_cycle;Max_cycle;Signal;HPM_P1;HPM_P2
2022/08/30 00:02:23;;;;;;;;;;;;;;;22.64;73.67;100201.67;1656759;83;21069;-73
2022/08/30 00:04:53;;;;;;;10.78;9.65;;;;;;;22.61;73.87;100201.69;1660451;84;20119;-70
2022/08/30 00:07:19;;;;;;;12.35;10.08;;;;;;;22.54;74.21;100202.49;1656338;84;21487;-69
2022/08/30 00:09:45;;;;;;;11.28;10.03;;;;;;;22.53;74.41;100198.16;1671491;83;21101;-70
2022/08/30 00:12:11;;;;;;;11.38;9.48;;;;;;;22.52;74.35;100197.88;1664367;84;21050;-70
2022/08/30 00:14:37;;;;;;;11.00;9.88;;;;;;;22.51;74.38;100196.27;1679053;83;21592;-70
2022/08/30 00:17:05;;;;;;;10.30;9.30;;;;;;;22.50;74.50;100191.91;1692660;83;21040;-69
2022/08/30 00:19:32;;;;;;;11.63;9.15;;;;;;;22.51;74.55;100194.36;1681594;84;21105;-70
2022/08/30 00:21:58;;;;;;;10.25;9.05;;;;;;;22.48;74.66;100195.44;1632638;84;21107;-69
2022/08/30 00:24:24;;;;;;;9.23;8.35;;;;;;;22.46;74.86;100198.42;1701015;83;21034;-71
2022/08/30 00:26:50;;;;;;;11.25;8.93;;;;;;;22.44;74.92;100199.78;1739715;82;21010;-70
2022/08/30 00:29:17;;;;;;;10.58;8.78;;;;;;;22.43;74.99;100196.78;1732878;81;21157;-71
2022/08/30 00:31:43;;;;;;;11.15;10.13;;;;;;;22.36;74.86;100187.56;1747123;80;21295;-70
2022/08/30 00:34:10;;;;;;;9.35;8.45;;;;;;;22.42;75.08;100195.17;1759363;79;20990;-70
2022/08/30 00:36:36;;;;;;;9.48;8.53;;;;;;;22.39;75.17;100192.44;1745618;81;21085;-71
2022/08/30 00:39:04;;;;;;;13.28;9.28;;;;;;;22.40;75.09;100194.62;1761620;81;21018;-70
2022/08/30 00:41:30;;;;;;;10.68;9.68;;;;;;;22.38;75.06;100198.12;1694625;81;21070;-71
2022/08/30 00:43:58;;;;;;;9.28;8.38;;;;;;;22.37;75.08;100202.75;1661603;85;20977;-70
2022/08/30 00:46:26;;;;;;;9.53;8.73;;;;;;;22.38;75.26;100203.56;1640470;85;21534;-72
2022/08/30 00:48:54;;;;;;;13.38;9.43;;;;;;;22.35;75.49;100196.78;1687828;81;21058;-70
2022/08/30 00:51:25;;;;;;;9.25;8.13;;;;;;;22.31;75.35;100201.93;1728562;81;21496;-70
2022/08/30 00:53:54;;;;;;;9.48;8.58;;;;;;;22.29;75.79;100200.03;1732705;81;20984;-70
2022/08/30 00:56:22;;;;;;;11.90;9.38;;;;;;;22.27;75.67;100203.56;1672990;81;21618;-70
2022/08/30 00:58:54;;;;;;;13.90;8.35;;;;;;;22.26;75.64;100211.42;1650350;85;21072;-71
2022/08/30 01:01:21;;;;;;;10.50;9.35;;;;;;;22.25;75.63;100210.33;1626462;81;21692;-70
2022/08/30 01:03:49;;;;;;;10.45;9.13;;;;;;;22.24;75.70;100214.11;1671665;84;21491;-71
2022/08/30 01:06:16;;;;;;;9.65;8.58;;;;;;;22.22;76.04;100215.73;1673259;84;21154;-70
2022/08/30 01:08:45;;;;;;;10.60;9.63;;;;;;;22.18;76.16;100211.93;1657735;84;21746;-70
2022/08/30 01:11:14;;;;;;;10.20;9.08;;;;;;;22.15;76.22;100220.59;1610141;85;21111;-71
2022/08/30 01:13:42;;;;;;;11.10;8.53;;;;;;;22.12;76.22;100218.44;1593952;88;21031;-70
2022/08/30 01:16:09;;;;;;;10.65;8.83;;;;;;;22.11;76.33;100220.86;1593795;88;21053;-70
2022/08/30 01:18:38;;;;;;;11.10;9.58;;;;;;;22.10;76.82;100224.13;1679694;83;21063;-70
2022/08/30 01:21:52;;;;;;;11.30;10.20;;;;;;;22.04;76.96;100225.20;1704430;83;21501;-69
2022/08/30 01:24:18;;;;;;;9.85;8.85;;;;;;;22.01;77.18;100216.78;1695440;81;20987;-70
2022/08/30 01:26:45;;;;;;;9.63;8.68;;;;;;;21.95;77.41;100220.83;1697518;83;21023;-68
2022/08/30 01:29:16;;;;;;;10.78;9.25;;;;;;;21.94;77.76;100221.93;1693304;83;21561;-70
2022/08/30 01:31:43;;;;;;;9.63;8.65;;;;;;;21.91;77.72;100217.02;1677155;83;20995;-70
2022/08/30 01:34:09;;;;;;;10.25;9.20;;;;;;;21.87;78.26;100215.93;1647788;83;21068;-70
2022/08/30 01:36:38;;;;;;;11.18;9.50;;;;;;;21.84;78.29;100213.73;1670636;84;21519;-72
2022/08/30 01:39:05;;;;;;;10.80;9.60;;;;;;;21.80;78.42;100214.00;1669048;84;20983;-70
2022/08/30 01:41:34;;;;;;;9.83;8.83;;;;;;;21.77;78.74;100215.88;1657775;84;21065;-71
2022/08/30 01:44:06;;;;;;;10.13;9.20;;;;;;;21.74;78.78;100212.36;1667093;84;20987;-70
2022/08/30 01:46:38;;;;;;;11.00;9.98;;;;;;;21.72;78.99;100206.39;1660630;84;21057;-70
2022/08/30 01:49:10;;;;;;;10.70;9.70;;;;;;;21.68;79.09;100211.52;1666850;84;21479;-71
2022/08/30 01:51:37;;;;;;;13.85;9.30;;;;;;;21.66;79.50;100206.91;1699620;82;21073;-70
2022/08/30 01:54:04;;;;;;;11.28;9.43;;;;;;;21.65;79.62;100213.95;1723116;82;21022;-71
2022/08/30 01:56:33;;;;;;;9.55;8.75;;;;;;;21.62;79.63;100216.63;1698885;82;21592;-70
2022/08/30 01:58:59;;;;;;;10.90;9.18;;;;;;;21.61;79.93;100215.56;1714882;81;21742;-70
2022/08/30 02:01:30;;;;;;;9.28;8.48;;;;;;;21.58;79.85;100214.98;1718799;81;21027;-70
2022/08/30 02:03:56;;;;;;;9.98;9.18;;;;;;;21.58;80.09;100213.63;1689996;83;21586;-70
2022/08/30 02:06:25;;;;;;;10.03;9.20;;;;;;;21.56;80.15;100217.14;1657326;85;21018;-70
2022/08/30 02:08:51;;;;;;;10.00;9.20;;;;;;;21.54;80.35;100216.59;1694558;82;21221;-70
2022/08/30 02:11:17;;;;;;;9.03;8.13;;;;;;;21.52;80.23;100222.02;1688107;83;21022;-69
2022/08/30 02:13:45;;;;;;;9.55;8.55;;;;;;;21.51;80.29;100223.09;1666885;84;21123;-69
2022/08/30 02:16:17;;;;;;;9.70;8.65;;;;;;;21.49;80.56;100228.80;1635381;85;21152;-70
2022/08/30 02:18:45;;;;;;;9.23;8.23;;;;;;;21.46;80.63;100237.45;1653949;84;21062;-70
2022/08/30 02:21:12;;;;;;;11.40;9.63;;;;;;;21.40;81.05;100222.21;1666140;84;21018;-70
2022/08/30 02:23:39;;;;;;;10.15;8.55;;;;;;;21.37;81.21;100225.44;1664842;84;21225;-70
2022/08/30 02:26:05;;;;;;;10.45;9.10;;;;;;;21.28;81.34;100213.45;1666331;84;21487;-70
2022/08/30 02:28:32;;;;;;;10.38;9.38;;;;;;;21.31;81.59;100227.85;1681433;84;20984;-71
2022/08/30 02:30:59;;;;;;;10.20;9.25;;;;;;;21.30;81.75;100224.84;1642806;86;21050;-70
2022/08/30 02:33:25;;;;;;;10.03;9.10;;;;;;;21.28;82.27;100225.66;1679927;84;20995;-69
2022/08/30 02:35:53;;;;;;;10.68;8.95;;;;;;;21.24;82.30;100232.68;1640769;86;21523;-70
2022/08/30 02:38:19;;;;;;;10.78;9.75;;;;;;;21.20;82.70;100241.33;1680225;84;21078;-70
2022/08/30 02:40:45;;;;;;;10.85;9.75;;;;;;;21.17;82.73;100239.16;1701014;84;21066;-69
2022/08/30 02:43:11;;;;;;;;;;;;;;;21.17;82.91;100248.64;1717623;82;20999;-70
2022/08/30 02:45:37;;;;;;;10.30;9.40;;;;;;;21.13;83.21;100246.70;1701017;82;20109;-71
2022/08/30 02:48:04;;;;;;;9.25;8.43;;;;;;;21.03;83.39;100247.45;1709129;82;21066;-71
2022/08/30 02:50:30;;;;;;;11.48;9.88;;;;;;;21.02;83.74;100247.70;1730875;81;21123;-69
2022/08/30 02:52:56;;;;;;;11.50;10.50;;;;;;;21.02;83.96;100251.77;1730737;81;21502;-70
2022/08/30 02:55:22;;;;;;;10.38;9.48;;;;;;;20.99;84.42;100249.05;1733499;81;20992;-71
2022/08/30 02:57:49;;;;;;;10.32;8.93;;;;;;;20.95;84.49;100250.65;1732954;81;21042;-70
2022/08/30 03:00:19;;;;;;;9.43;8.73;;;;;;;20.92;84.79;100253.86;1708734;80;21094;-70
2022/08/30 03:02:46;;;;;;;11.38;10.25;;;;;;;20.93;84.79;100259.58;1679744;84;21058;-70
2022/08/30 03:05:15;;;;;;;9.95;9.15;;;;;;;20.93;85.10;100264.99;1678047;84;21009;-70
2022/08/30 03:07:43;;;;;;;9.00;8.08;;;;;;;20.92;84.98;100263.34;1706031;84;21101;-70
2022/08/30 03:10:10;;;;;;;10.20;9.15;;;;;;;20.90;85.36;100260.08;1694511;83;21026;-70
2022/08/30 03:12:37;;;;;;;9.75;8.85;;;;;;;20.87;85.59;100263.30;1703980;82;21058;-70
2022/08/30 03:15:09;;;;;;;10.23;8.70;;;;;;;20.83;85.86;100261.64;1711925;82;21121;-71
2022/08/30 03:17:38;;;;;;;9.90;9.10;;;;;;;20.84;86.35;100263.83;1715362;82;21114;-70
2022/08/30 03:20:07;;;;;;;10.43;9.50;;;;;;;20.83;86.26;100269.77;1714049;82;21057;-68
2022/08/30 03:22:33;;;;;;;9.43;8.63;;;;;;;20.82;86.59;100272.76;1749797;80;21596;-70
2022/08/30 03:25:00;;;;;;;10.25;9.25;;;;;;;20.79;86.89;100274.07;1789072;79;20978;-69
2022/08/30 03:27:28;;;;;;;10.40;9.38;;;;;;;20.79;86.68;100274.91;1786611;79;21077;-71
2022/08/30 03:29:55;;;;;;;10.23;9.43;;;;;;;20.80;86.83;100270.30;1758108;78;21153;-70
2022/08/30 03:32:22;;;;;;;10.00;9.13;;;;;;;20.82;86.86;100278.17;1732968;82;21061;-71
2022/08/30 03:34:49;;;;;;;13.53;10.20;;;;;;;20.85;86.88;100272.22;1691430;83;21048;-70
2022/08/30 03:37:16;;;;;;;11.20;9.60;;;;;;;20.90;86.61;100277.69;1689059;80;21101;-69
2022/08/30 03:39:44;;;;;;;10.65;9.63;;;;;;;20.93;86.47;100281.25;1678029;84;21127;-72
2022/08/30 03:42:10;;;;;;;10.55;9.60;;;;;;;20.96;86.44;100285.62;1616361;87;21084;-71
2022/08/30 03:44:37;;;;;;;10.50;9.55;;;;;;;21.02;86.08;100284.28;1717950;81;21492;-68
2022/08/30 03:47:06;;;;;;;11.85;9.83;;;;;;;21.06;85.79;100289.45;1730678;81;21169;-69
2022/08/30 03:49:36;;;;;;;11.20;10.15;;;;;;;21.15;85.67;100289.25;1757298;81;21112;-75
2022/08/30 03:52:04;;;;;;;11.88;10.80;;;;;;;21.23;85.10;100298.80;1741995;81;21021;-70
2022/08/30 03:54:30;;;;;;;10.60;9.70;;;;;;;21.21;84.56;100293.66;1757456;80;21053;-72
2022/08/30 03:56:57;;;;;;;11.28;10.18;;;;;;;21.13;84.78;100297.64;1739599;80;21076;-71
2022/08/30 03:59:24;;;;;;;10.98;10.05;;;;;;;21.04;85.18;100301.94;1732562;81;21097;-72
2022/08/30 04:01:50;;;;;;;12.53;11.22;;;;;;;20.96;85.21;100299.68;1667255;81;21113;-69
2022/08/30 04:04:17;;;;;;;12.18;11.18;;;;;;;20.90;85.22;100304.78;1674224;84;21014;-71
2022/08/30 04:06:44;;;;;;;12.20;11.20;;;;;;;20.80;85.31;100309.58;1671194;84;21085;-69
2022/08/30 04:09:10;;;;;;;12.47;11.28;;;;;;;20.67;85.92;100310.80;1680976;83;21113;-69
2022/08/30 04:11:37;;;;;;;12.00;10.90;;;;;;;20.52;86.68;100315.50;1702333;83;21036;-68
2022/08/30 04:14:03;;;;;;;13.22;11.88;;;;;;;20.43;87.02;100319.73;1695059;83;21061;-69
2022/08/30 04:16:30;;;;;;;11.55;10.55;;;;;;;20.35;87.53;100320.19;1709473;81;21140;-71
2022/08/30 04:18:56;;;;;;;13.13;11.88;;;;;;;20.24;88.38;100321.95;1716724;82;22219;-74
2022/08/30 04:21:22;;;;;;;12.58;11.48;;;;;;;20.15;88.90;100330.23;1707609;83;21077;-68
2022/08/30 04:23:50;;;;;;;13.80;12.03;;;;;;;20.10;89.60;100334.22;1734509;81;21476;-72
2022/08/30 04:26:16;;;;;;;11.97;11.03;;;;;;;20.05;89.95;100326.87;1677592;83;21241;-69
2022/08/30 04:28:43;;;;;;;14.00;12.82;;;;;;;20.00;90.57;100333.05;1667371;85;21085;-68
2022/08/30 04:31:11;;;;;;;;;;;;;;;20.00;90.75;100333.05;1624915;87;22251;-68
2022/08/30 04:33:39;;;;;;;13.78;12.55;;;;;;;20.02;90.92;100327.36;1687046;83;20186;-71
2022/08/30 04:36:08;;;;;;;13.35;12.25;;;;;;;20.00;91.21;100331.70;1680452;84;21136;-69
2022/08/30 04:38:38;;;;;;;14.80;13.32;;;;;;;19.97;91.59;100329.48;1696938;83;21167;-72
2022/08/30 04:41:16;;;;;;;15.53;14.03;;;;;;;19.93;92.23;100330.22;1699361;83;21021;-68
2022/08/30 04:43:46;;;;;;;14.95;13.43;;;;;;;19.90;92.29;100334.25;1749032;80;21132;-68
2022/08/30 04:46:14;;;;;;;14.28;13.08;;;;;;;19.90;92.56;100333.44;1761754;80;20937;-68
2022/08/30 04:48:40;;;;;;;15.00;13.55;;;;;;;19.91;92.48;100341.31;1760926;80;20971;-69
2022/08/30 04:51:08;;;;;;;;;;;;;;;19.94;92.48;100334.57;1762814;80;21144;-68
2022/08/30 04:53:36;;;;;;;15.23;13.83;;;;;;;19.97;92.31;100336.24;1712099;80;20142;-68
2022/08/30 04:56:10;;;;;;;14.40;12.90;;;;;;;19.95;92.43;100343.80;1701256;83;21554;-73
2022/08/30 04:58:38;;;;;;;;;;;;;;;19.98;92.46;100349.22;1606740;85;83680;-92
2022/08/30 05:01:13;;;;;;;12.45;11.35;;;;;;;20.02;92.44;100350.36;1651197;85;20106;-89
2022/08/30 05:03:42;;;;;;;12.83;11.63;;;;;;;20.02;92.35;100342.23;1672877;84;21009;-89
2022/08/30 05:06:11;;;;;;;13.00;11.75;;;;;;;20.06;92.03;100346.10;1656195;85;21322;-89
2022/08/30 05:08:41;;;;;;;13.78;12.50;;;;;;;20.12;91.87;100351.86;1663848;85;21196;-87
2022/08/30 05:11:11;;;;;;;12.82;11.63;;;;;;;20.20;91.58;100350.05;1651316;85;21090;-85
2022/08/30 05:13:45;;;;;;;13.65;12.10;;;;;;;20.28;91.26;100347.98;1652049;85;21591;-87
2022/08/30 05:16:25;;;;;;;12.58;11.57;;;;;;;20.33;90.45;100347.51;1661211;85;21031;-90
2022/08/30 05:19:15;;;;;;;11.90;11.00;;;;;;;20.38;90.27;100346.22;1640334;86;21080;-92
2022/08/30 05:21:44;;;;;;;14.47;13.05;;;;;;;20.46;89.62;100340.08;1691505;80;86382;-69
2022/08/30 05:24:10;;;;;;;11.60;10.60;;;;;;;20.51;89.20;100339.60;1759475;80;21994;-74
2022/08/30 05:26:38;;;;;;;10.70;9.90;;;;;;;20.61;88.69;100342.98;1769983;80;21482;-73
2022/08/30 05:29:04;;;;;;;12.47;9.90;;;;;;;20.67;88.11;100340.59;1767304;80;21556;-76
2022/08/30 05:31:34;;;;;;;10.20;9.48;;;;;;;20.70;87.62;100331.97;1768858;80;21501;-78
2022/08/30 05:34:02;;;;;;;10.25;9.38;;;;;;;20.76;87.57;100333.64;1775389;80;20985;-77
2022/08/30 05:36:33;;;;;;;10.10;9.10;;;;;;;20.85;86.84;100338.59;1775499;80;20953;-78
2022/08/30 05:39:00;;;;;;;14.45;11.38;;;;;;;20.89;86.25;100331.06;1771996;80;20985;-78
2022/08/30 05:41:26;;;;;;;12.80;10.18;;;;;;;20.96;85.33;100334.39;1765719;80;21021;-77
2022/08/30 05:43:55;;;;;;;9.28;8.33;;;;;;;21.04;83.88;100337.67;1756000;80;21552;-75
2022/08/30 05:46:21;;;;;;;9.25;8.38;;;;;;;21.07;83.13;100337.98;1761879;80;21037;-79
2022/08/30 05:48:48;;;;;;;7.12;6.53;;;;;;;21.12;82.63;100337.22;1763263;80;21481;-79
2022/08/30 05:51:19;;;;;;;6.72;6.22;;;;;;;21.15;82.07;100333.46;1773564;80;22503;-74
2022/08/30 05:53:48;;;;;;;6.85;6.22;;;;;;;21.25;81.66;100333.23;1763282;80;21004;-77
2022/08/30 05:56:19;;;;;;;7.35;6.40;;;;;;;21.52;81.30;100334.56;1770271;80;21073;-84
2022/08/30 05:58:46;;;;;;;5.60;5.10;;;;;;;22.01;78.63;100333.48;1768723;80;21057;-81
2022/08/30 06:01:39;;;;;;;8.63;5.47;;;;;;;22.73;75.65;100329.94;1770868;80;21503;-83
2022/08/30 06:04:08;;;;;;;5.28;4.83;;;;;;;23.20;72.07;100281.84;1768878;80;21513;-77
2022/08/30 06:06:38;;;;;;;7.62;4.22;;;;;;;24.30;67.50;100320.19;1767571;80;20993;-78
2022/08/30 06:09:06;;;;;;;6.42;4.70;;;;;;;24.90;66.33;100321.44;1765711;80;21450;-82
2022/08/30 06:11:34;;;;;;;3.60;3.47;;;;;;;25.66;63.32;100310.96;1777043;80;21012;-81
2022/08/30 06:14:01;;;;;;;4.83;4.22;;;;;;;26.29;59.63;100311.30;1779152;80;21782;-79
2022/08/30 06:16:29;;;;;;;6.10;5.35;;;;;;;26.51;57.46;100318.11;1763343;80;20953;-82
2022/08/30 06:18:58;;;;;;;5.70;3.83;;;;;;;26.47;57.30;100311.05;1770717;80;20957;-81
2022/08/30 06:21:28;;;;;;;3.75;3.55;;;;;;;26.60;56.89;100315.00;1769962;80;21214;-81
2022/08/30 06:23:55;;;;;;;3.77;3.52;;;;;;;26.77;56.54;100311.17;1744732;79;21046;-79
2022/08/30 06:26:22;;;;;;;3.02;2.83;;;;;;;27.02;55.93;100315.17;1735658;82;20912;-83
2022/08/30 06:28:49;;;;;;;3.35;3.08;;;;;;;27.17;54.47;100310.23;1734499;81;20940;-78
2022/08/30 06:31:18;;;;;;;3.05;2.90;;;;;;;27.07;54.19;100324.10;1735053;82;21591;-82
2022/08/30 06:33:47;;;;;;;3.10;2.90;;;;;;;27.07;54.26;100321.90;1728894;81;21086;-83
2022/08/30 06:36:19;;;;;;;3.20;3.00;;;;;;;27.27;54.57;100313.94;1741258;81;21132;-82
2022/08/30 06:38:49;;;;;;;2.87;2.67;;;;;;;27.64;53.16;100318.45;1727855;82;21060;-84
2022/08/30 06:41:19;;;;;;;3.52;3.22;;;;;;;27.88;51.26;100325.67;1731899;82;21017;-85
2022/08/30 06:43:46;;;;;;;3.92;2.62;;;;;;;27.96;51.11;100318.13;1738047;81;21525;-81
2022/08/30 06:46:16;;;;;;;2.92;2.77;;;;;;;28.11;50.68;100321.91;1730809;81;21016;-84
2022/08/30 06:48:42;;;;;;;2.60;2.45;;;;;;;28.07;50.24;100319.54;1742696;82;21048;-87
2022/08/30 06:51:09;;;;;;;2.95;2.47;;;;;;;27.97;49.46;100319.73;1730185;81;21560;-84
2022/08/30 06:53:35;;;;;;;2.67;2.42;;;;;;;27.89;50.34;100313.05;1713521;81;21171;-83
2022/08/30 06:56:08;;;;;;;2.60;2.50;;;;;;;27.95;50.04;100316.49;1723857;82;21075;-82
2022/08/30 06:58:37;;;;;;;2.40;2.20;;;;;;;28.05;50.13;100318.20;1741974;80;21106;-80
2022/08/30 07:01:05;;;;;;;2.00;1.90;;;;;;;28.02;48.76;100323.75;1765309;80;20962;-82
2022/08/30 07:03:33;;;;;;;1.90;1.80;;;;;;;27.68;48.41;100316.73;1763929;80;21033;-77
2022/08/30 07:05:59;;;;;;;1.87;1.77;;;;;;;27.30;48.99;100319.63;1735417;81;21064;-86
2022/08/30 07:08:26;;;;;;;2.22;1.72;;;;;;;26.89;49.95;100324.38;1769264;80;21032;-82
2022/08/30 07:10:53;;;;;;;3.90;2.22;;;;;;;26.46;50.52;100317.61;1780794;80;21044;-77
2022/08/30 07:13:22;;;;;;;4.33;1.52;;;;;;;26.14;51.25;100323.23;1765583;79;21516;-82
2022/08/30 07:15:50;;;;;;;5.17;1.75;;;;;;;25.93;52.06;100321.31;1761801;80;21087;-86
2022/08/30 07:21:10;;;;;;;1.98;1.47;;;;;;;25.88;52.46;100331.45;1764323;80;21117;-84
2022/08/30 07:23:37;;;;;;;1.27;1.12;;;;;;;25.84;51.89;100326.59;1764995;80;21465;-83
2022/08/30 07:26:07;;;;;;;3.15;1.45;;;;;;;25.79;51.18;100321.18;1786527;80;21560;-84
2022/08/30 07:28:37;;;;;;;1.20;1.12;;;;;;;25.76;50.79;100325.84;1765414;80;20982;-88
2022/08/30 07:31:05;;;;;;;2.50;1.82;;;;;;;25.67;51.37;100331.67;1758436;80;21057;-79
2022/08/30 07:33:32;;;;;;;3.17;1.55;;;;;;;25.68;51.52;100333.88;1767901;80;21057;-83
2022/08/30 07:35:58;;;;;;;4.00;1.47;;;;;;;25.71;51.99;100330.55;1767713;80;21767;-84
2022/08/30 07:38:26;;;;;;;2.62;1.40;;;;;;;25.71;50.90;100335.48;1787809;80;21450;-83
2022/08/30 07:40:52;;;;;;;1.67;1.10;;;;;;;25.67;49.82;100324.05;1787811;80;21473;-86
2022/08/30 07:43:18;;;;;;;1.25;1.15;;;;;;;25.66;49.53;100324.61;1770980;80;20958;-85
2022/08/30 07:45:44;;;;;;;3.35;3.05;;;;;;;25.73;49.63;100320.98;1774392;79;21001;-82
2022/08/30 07:48:12;;;;;;;3.60;3.40;;;;;;;25.84;49.12;100335.31;1780799;80;21073;-84
2022/08/30 07:50:44;;;;;;;2.27;2.10;;;;;;;25.88;49.38;100330.92;1773103;80;20990;-83
2022/08/30 07:53:11;;;;;;;1.50;1.30;;;;;;;25.89;49.57;100333.09;1766755;80;20918;-76
2022/08/30 07:55:38;;;;;;;1.47;1.37;;;;;;;25.89;49.29;100327.63;1767044;80;20969;-80
2022/08/30 07:58:04;;;;;;;1.70;1.12;;;;;;;25.89;49.55;100327.63;1756150;80;20969;-75
2022/08/30 08:00:31;;;;;;;1.52;1.20;;;;;;;25.92;48.13;100327.06;1771896;79;20978;-76
2022/08/30 08:02:57;;;;;;;1.47;1.27;;;;;;;25.89;47.89;100329.00;1784667;78;21010;-71
2022/08/30 08:05:23;;;;;;;0.78;0.78;;;;;;;25.88;47.72;100324.63;1768461;80;21016;-80
2022/08/30 08:07:49;;;;;;;2.37;0.88;;;;;;;25.94;47.77;100329.78;1760291;80;20962;-83
2022/08/30 08:10:15;;;;;;;1.25;1.25;;;;;;;25.94;47.77;100329.78;1765908;80;20963;-80
2022/08/30 08:12:41;;;;;;;1.12;0.78;;;;;;;25.99;47.46;100326.16;1689478;80;21897;-82
2022/08/30 08:15:08;;;;;;;1.45;1.35;;;;;;;26.03;46.17;100328.56;1685139;83;21099;-81
2022/08/30 08:17:35;;;;;;;0.80;0.80;;;;;;;25.99;45.36;100324.80;1667079;84;20970;-85
2022/08/30 08:20:03;;;;;;;3.15;1.20;;;;;;;25.92;45.86;100322.44;1683688;83;20994;-86
2022/08/30 08:22:29;;;;;;;0.75;0.65;;;;;;;25.85;46.42;100321.94;1659591;84;21013;-81
2022/08/30 08:24:55;;;;;;;0.98;0.98;;;;;;;25.82;46.76;100316.52;1686625;83;20989;-78
2022/08/30 08:27:23;;;;;;;3.02;1.25;;;;;;;25.84;46.79;100317.56;1658933;84;20978;-80
2022/08/30 08:29:49;;;;;;;1.60;0.98;;;;;;;25.87;46.83;100318.92;1673599;83;21101;-80
2022/08/30 08:32:15;;;;;;;2.30;1.20;;;;;;;25.91;47.02;100319.40;1669318;83;20997;-84
2022/08/30 08:34:41;;;;;;;2.27;1.57;;;;;;;26.00;47.02;100319.61;1691891;83;21545;-84
2022/08/30 08:37:07;;;;;;;1.30;1.20;;;;;;;26.10;45.49;100320.83;1691844;83;20959;-84
2022/08/30 08:39:33;;;;;;;1.95;0.90;;;;;;;26.18;44.92;100318.00;1669557;84;21584;-82
2022/08/30 08:42:14;;;;;;;3.05;0.70;;;;;;;26.20;44.31;100315.25;1673552;83;20976;-82
2022/08/30 08:45:01;;;;;;;0.60;0.60;;;;;;;26.22;44.62;100326.70;1656650;84;20990;-83
2022/08/30 08:47:38;;;;;;;1.30;1.10;;;;;;;26.28;44.48;100317.88;1676016;83;20919;-80
2022/08/30 08:50:16;;;;;;;1.10;0.98;;;;;;;26.31;44.55;100326.03;1680259;83;21001;-79
2022/08/30 08:55:47;;;;;;;1.42;1.07;;;;;;;26.32;44.54;100323.02;1682944;84;20977;-82
2022/08/30 08:58:31;;;;;;;1.00;1.00;;;;;;;26.36;44.48;100316.41;1667402;84;20958;-80
2022/08/30 09:00:58;;;;;;;3.08;0.95;;;;;;;26.37;44.12;100318.02;1682268;83;20971;-83
2022/08/30 09:03:27;;;;;;;3.72;1.75;;;;;;;26.32;44.02;100309.34;1662374;84;21005;-84
2022/08/30 09:05:54;;;;;;;1.42;1.05;;;;;;;26.29;43.10;100310.48;1656580;84;20974;-81
2022/08/30 09:08:22;;;;;;;0.82;0.82;;;;;;;26.27;43.33;100317.61;1689787;83;22118;-82
2022/08/30 09:10:59;;;;;;;0.90;0.90;;;;;;;26.30;42.43;100306.66;1702930;83;20978;-85
2022/08/30 09:15:17;;;;;;;;;;;;;;;26.50;40.84;100309.08;1845607;77;23417;-83
2022/08/30 09:18:01;;;;;;;2.00;1.22;;;;;;;26.57;40.27;100316.92;1817413;78;20110;-76
2022/08/30 09:20:32;;;;;;;1.20;1.07;;;;;;;26.59;40.26;100312.80;1812431;78;21033;-83
2022/08/30 09:23:16;;;;;;;1.70;0.82;;;;;;;26.63;40.37;100316.33;1796224;78;20938;-82
2022/08/30 09:26:05;;;;;;;1.92;1.50;;;;;;;26.51;40.21;100316.18;1782732;79;21006;-82
2022/08/30 09:28:34;;;;;;;2.05;0.95;;;;;;;26.43;40.52;100314.13;1790867;78;21029;-81
2022/08/30 09:31:05;;;;;;;1.67;1.00;;;;;;;26.19;40.49;100273.20;1788551;79;21036;-84
2022/08/30 09:33:32;;;;;;;1.17;1.07;;;;;;;26.51;41.20;100318.91;1771859;79;20979;-79
2022/08/30 09:36:21;;;;;;;1.42;1.32;;;;;;;26.56;41.61;100315.28;1783958;79;20969;-83
2022/08/30 09:39:00;;;;;;;0.88;0.88;;;;;;;26.58;41.54;100315.27;1791737;79;20929;-81
2022/08/30 09:41:35;;;;;;;2.85;0.98;;;;;;;26.58;41.21;100313.89;1796330;79;21011;-70
2022/08/30 09:44:26;;;;;;;4.87;1.20;;;;;;;26.59;41.45;100325.10;1788700;78;21021;-85
2022/08/30 09:46:56;;;;;;;1.35;0.60;;;;;;;26.59;41.08;100310.07;1785753;79;20983;-81
2022/08/30 09:49:38;;;;;;;1.02;0.78;;;;;;;26.54;40.41;100315.60;1780867;79;21065;-82
2022/08/30 09:52:34;;;;;;;1.27;1.27;;;;;;;26.52;40.27;100307.42;1798554;79;21476;-84
2022/08/30 09:55:21;;;;;;;0.82;0.78;;;;;;;26.55;40.53;100308.20;1797773;79;20992;-79
2022/08/30 09:58:08;;;;;;;1.27;0.50;;;;;;;26.59;40.95;100311.44;1789115;79;20975;-83
2022/08/30 10:00:46;;;;;;;2.52;1.00;;;;;;;26.60;40.66;100308.97;1759202;79;20976;-78
2022/08/30 10:03:30;;;;;;;3.83;0.88;;;;;;;26.57;40.73;100305.98;1785209;79;21066;-82
2022/08/30 10:06:14;;;;;;;3.05;0.85;;;;;;;26.55;40.92;100301.37;1776944;79;21075;-82
2022/08/30 10:09:07;;;;;;;3.15;0.68;;;;;;;26.55;41.31;100307.64;1786039;79;21185;-83
2022/08/30 10:12:05;;;;;;;1.92;0.90;;;;;;;26.60;41.46;100306.80;1792015;77;21118;-80
2022/08/30 10:14:51;;;;;;;5.03;1.52;;;;;;;26.69;40.80;100314.59;1793357;78;21166;-84
2022/08/30 10:17:47;;;;;;;1.05;0.88;;;;;;;26.66;40.16;100302.07;1780638;78;21489;-80
2022/08/30 10:20:24;;;;;;;0.62;0.62;;;;;;;26.66;40.16;100302.07;1771182;79;20915;-83
2022/08/30 10:22:59;;;;;;;0.72;0.53;;;;;;;26.65;40.24;100306.70;1785543;77;21030;-83
2022/08/30 10:25:45;;;;;;;3.25;0.80;;;;;;;26.42;40.24;100270.13;1786308;79;20979;-79
2022/08/30 10:28:32;;;;;;;1.98;0.88;;;;;;;26.65;39.91;100309.44;1795383;78;20998;-81
2022/08/30 10:31:10;;;;;;;0.60;0.60;;;;;;;26.67;39.80;100315.42;1786250;79;20950;-83
2022/08/30 10:33:46;;;;;;;1.95;0.55;;;;;;;26.72;39.88;100312.61;1782735;79;20971;-83
2022/08/30 10:36:14;;;;;;;0.93;0.62;;;;;;;26.73;39.53;100307.42;1793777;78;21508;-83
2022/08/30 10:38:47;;;;;;;1.32;0.50;;;;;;;26.73;38.97;100312.89;1794330;79;20963;-85
2022/08/30 10:41:25;;;;;;;4.55;0.80;;;;;;;26.73;39.08;100302.48;1795508;79;20944;-81
2022/08/30 10:44:21;;;;;;;1.10;0.40;;;;;;;26.73;39.29;100303.84;1791820;78;21041;-78
2022/08/30 10:47:13;;;;;;;0.80;0.50;;;;;;;26.66;39.49;100306.98;1796073;79;20916;-81
2022/08/30 10:49:44;;;;;;;0.95;0.40;;;;;;;26.55;39.79;100299.45;1795637;78;20963;-82
2022/08/30 10:52:34;;;;;;;0.95;0.62;;;;;;;26.47;40.54;100309.69;1795010;79;20939;-83
2022/08/30 10:55:29;;;;;;;2.95;0.55;;;;;;;26.45;40.09;100306.44;1791007;79;20973;-82
2022/08/30 10:58:04;;;;;;;2.47;0.70;;;;;;;26.40;40.49;100301.84;1778760;79;20975;-83
2022/08/30 11:00:42;;;;;;;1.02;0.55;;;;;;;26.43;40.81;100296.36;1788809;79;20990;-86
2022/08/30 11:03:38;;;;;;;0.80;0.68;;;;;;;26.48;40.87;100293.53;1734087;79;21087;-84
2022/08/30 11:06:38;;;;;;;5.05;0.70;;;;;;;26.58;40.28;100289.30;1783296;78;21468;-81
2022/08/30 11:09:21;;;;;;;1.22;0.55;;;;;;;26.65;39.75;100294.97;1720091;79;21043;-77
2022/08/30 11:12:20;;;;;;;4.17;0.65;;;;;;;26.69;39.78;100294.09;1781992;79;20960;-82
2022/08/30 11:14:48;;;;;;;1.52;0.60;;;;;;;26.71;39.79;100296.50;1788055;79;21483;-82
2022/08/30 11:17:37;;;;;;;2.17;0.50;;;;;;;26.70;39.87;100289.43;1785525;79;20954;-83
2022/08/30 11:20:05;;;;;;;1.05;0.30;;;;;;;26.65;40.00;100286.20;1793409;79;20918;-83
2022/08/30 11:22:35;;;;;;;1.02;0.47;;;;;;;26.60;39.92;100283.57;1767901;80;21439;-80
2022/08/30 11:25:15;;;;;;;0.50;0.30;;;;;;;26.52;40.04;100275.99;1792083;78;20936;-79
2022/08/30 11:27:58;;;;;;;2.15;0.53;;;;;;;26.50;40.24;100276.28;1781627;79;21859;-81
2022/08/30 11:30:31;;;;;;;0.65;0.40;;;;;;;26.53;40.19;100279.80;1784736;79;21450;-78
2022/08/30 11:33:04;;;;;;;5.10;1.15;;;;;;;26.55;40.15;100278.14;1792063;78;20965;-82
2022/08/30 11:35:51;;;;;;;1.15;0.50;;;;;;;26.56;40.17;100280.58;1780767;79;21464;-81
2022/08/30 11:38:32;;;;;;;1.02;0.68;;;;;;;26.56;40.03;100277.84;1794677;79;20939;-82
2022/08/30 11:41:12;;;;;;;1.02;0.75;;;;;;;26.55;39.90;100278.95;1792162;78;20935;-81
2022/08/30 11:43:47;;;;;;;3.65;1.02;;;;;;;26.55;39.71;100272.11;1789603;78;20940;-80
2022/08/30 11:46:31;;;;;;;1.20;1.10;;;;;;;26.51;39.63;100279.28;1793973;79;20907;-83
2022/08/30 11:49:21;;;;;;;3.90;0.75;;;;;;;26.47;39.78;100271.99;1793157;79;20987;-83